createdAt,value
2022-12-15T00:02:34.811Z,100.43
2022-12-15T00:05:19.852Z,90.87
2022-12-15T00:08:05.092Z,62.77
2022-12-15T00:10:49.998Z,37.87
2022-12-15T00:13:35.308Z,35.67
2022-12-15T00:16:20.586Z,29.07
2022-12-15T00:19:05.491Z,26.90
2022-12-15T00:21:50.718Z,41.33
2022-12-15T00:24:35.671Z,28.50
2022-12-15T00:27:20.626Z,24.47
2022-12-15T00:30:06.002Z,20.17
2022-12-15T00:32:51.203Z,21.50
2022-12-15T00:35:36.254Z,20.90
2022-12-15T00:38:32.042Z,21.10
2022-12-15T00:40:59.804Z,64.80
2022-12-15T00:43:27.589Z,32.47
2022-12-15T00:46:13.492Z,31.13
2022-12-15T00:48:40.659Z,32.50
2022-12-15T00:51:07.275Z,28.17
2022-12-15T00:53:55.093Z,33.23
2022-12-15T00:56:40.393Z,51.53
2022-12-15T00:59:25.425Z,28.33
2022-12-15T01:02:10.420Z,23.60
2022-12-15T01:04:55.649Z,25.27
2022-12-15T01:07:40.842Z,25.17
2022-12-15T01:10:25.816Z,23.67
2022-12-15T01:13:10.793Z,47.57
2022-12-15T01:15:56.404Z,32.67
2022-12-15T01:18:42.136Z,25.60
2022-12-15T01:21:09.112Z,26.40
2022-12-15T01:23:36.130Z,21.63
2022-12-15T01:26:02.922Z,19.70
2022-12-15T01:28:29.412Z,19.37
2022-12-15T01:30:56.024Z,21.97
2022-12-15T01:33:22.565Z,19.10
2022-12-15T01:35:58.571Z,20.27
2022-12-15T01:38:25.840Z,20.57
2022-12-15T01:40:53.865Z,18.47
2022-12-15T01:43:22.558Z,19.77
2022-12-15T01:45:49.010Z,19.10
2022-12-15T01:48:19.403Z,17.57
2022-12-15T01:50:50.779Z,17.13
2022-12-15T01:53:17.609Z,16.67
2022-12-15T01:55:46.110Z,19.40
2022-12-15T01:58:16.879Z,17.23
2022-12-15T02:00:43.332Z,17.60
2022-12-15T02:03:10.537Z,18.50
2022-12-15T02:05:37.711Z,18.57
2022-12-15T02:08:05.086Z,17.53
2022-12-15T02:10:50.533Z,18.17
2022-12-15T02:13:28.218Z,18.33
2022-12-15T02:16:00.086Z,17.60
2022-12-15T02:18:26.607Z,18.10
2022-12-15T02:21:11.849Z,20.20
2022-12-15T02:23:47.219Z,18.20
2022-12-15T02:26:32.505Z,18.67
2022-12-15T02:29:17.347Z,19.10
2022-12-15T02:31:50.063Z,17.77
2022-12-15T02:34:16.859Z,20.33
2022-12-15T02:36:44.963Z,19.17
2022-12-15T02:39:12.463Z,19.90
2022-12-15T02:41:38.887Z,22.33
2022-12-15T02:44:21.242Z,19.13
2022-12-15T02:47:05.904Z,20.53
2022-12-15T02:49:44.268Z,18.23
2022-12-15T02:52:17.765Z,18.80
2022-12-15T02:54:44.103Z,18.90
2022-12-15T02:57:16.475Z,19.53
2022-12-15T02:59:55.669Z,19.03
2022-12-15T03:02:24.468Z,22.83
2022-12-15T03:04:51.077Z,17.03
2022-12-15T03:07:28.063Z,17.57
2022-12-15T03:09:56.259Z,19.30
2022-12-15T03:12:22.751Z,18.67
2022-12-15T03:14:49.176Z,19.67
2022-12-15T03:17:15.603Z,20.70
2022-12-15T03:19:42.026Z,19.40
2022-12-15T03:22:08.944Z,19.63
2022-12-15T03:24:35.547Z,19.00
2022-12-15T03:27:02.098Z,20.87
2022-12-15T03:29:28.531Z,18.90
2022-12-15T03:31:55.025Z,18.53
2022-12-15T03:34:21.586Z,21.30
2022-12-15T03:36:48.066Z,17.60
2022-12-15T03:39:14.539Z,21.00
2022-12-15T03:41:41.733Z,21.87
2022-12-15T03:44:08.212Z,20.37
2022-12-15T03:46:37.816Z,19.57
2022-12-15T03:49:04.287Z,20.30
2022-12-15T03:51:30.728Z,22.37
2022-12-15T03:53:58.929Z,21.50
2022-12-15T03:56:25.551Z,20.27
2022-12-15T03:58:51.992Z,22.67
2022-12-15T04:01:21.677Z,21.70
2022-12-15T04:03:48.330Z,20.90
2022-12-15T04:06:14.822Z,21.53
2022-12-15T04:08:41.334Z,27.10
2022-12-15T04:11:07.762Z,24.67
2022-12-15T04:13:34.574Z,24.07
2022-12-15T04:16:04.186Z,24.10
2022-12-15T04:18:30.664Z,27.43
2022-12-15T04:20:57.357Z,25.73
2022-12-15T04:23:23.860Z,27.43
2022-12-15T04:26:09.050Z,23.80
2022-12-15T04:28:53.946Z,23.77
2022-12-15T04:31:40.721Z,23.57
2022-12-15T04:34:29.064Z,22.00
2022-12-15T04:37:14.220Z,23.43
2022-12-15T04:40:01.136Z,21.83
2022-12-15T04:42:46.535Z,25.37
2022-12-15T04:45:32.217Z,22.40
2022-12-15T04:48:17.841Z,21.57
2022-12-15T04:51:03.078Z,22.70
2022-12-15T04:53:48.218Z,22.47
2022-12-15T04:56:33.860Z,21.30
2022-12-15T04:59:19.029Z,22.13
2022-12-15T05:02:04.569Z,19.90
2022-12-15T05:04:50.027Z,20.27
2022-12-15T05:07:35.282Z,19.43
2022-12-15T05:10:20.486Z,23.07
2022-12-15T05:13:05.613Z,24.53
2022-12-15T05:15:50.997Z,23.00
2022-12-15T05:18:36.250Z,23.20
2022-12-15T05:21:21.368Z,25.30
2022-12-15T05:24:06.412Z,27.57
2022-12-15T05:26:53.200Z,27.67
2022-12-15T05:29:38.571Z,25.60
2022-12-15T05:32:05.080Z,30.73
2022-12-15T05:34:32.585Z,29.83
2022-12-15T05:36:59.880Z,28.80
2022-12-15T05:39:27.081Z,28.20
2022-12-15T05:41:54.332Z,29.57
2022-12-15T05:44:21.125Z,29.50
2022-12-15T05:46:47.653Z,31.07
2022-12-15T05:49:15.272Z,31.23
2022-12-15T05:51:42.473Z,34.37
2022-12-15T05:54:09.661Z,31.37
2022-12-15T05:56:36.495Z,38.27
2022-12-15T05:59:03.304Z,37.97
2022-12-15T06:01:31.504Z,33.73
2022-12-15T06:03:58.653Z,33.57
2022-12-15T06:06:25.472Z,37.83
2022-12-15T06:08:52.142Z,37.60
2022-12-15T06:11:19.234Z,34.63
2022-12-15T06:13:46.710Z,34.20
2022-12-15T06:16:15.350Z,33.77
2022-12-15T06:18:43.212Z,31.17
2022-12-15T06:21:18.114Z,31.90
2022-12-15T06:23:45.071Z,32.80
2022-12-15T06:26:17.417Z,37.30
2022-12-15T06:28:43.974Z,35.10
2022-12-15T06:31:11.392Z,34.17
2022-12-15T06:33:38.437Z,34.27
2022-12-15T06:36:06.308Z,35.37
2022-12-15T06:38:36.212Z,35.10
2022-12-15T06:41:03.590Z,36.50
2022-12-15T06:43:30.836Z,36.80
2022-12-15T06:45:57.529Z,32.93
2022-12-15T06:48:24.436Z,36.60
2022-12-15T06:50:51.438Z,37.20
2022-12-15T06:53:18.912Z,33.50
2022-12-15T06:55:45.743Z,37.03
2022-12-15T06:58:13.066Z,32.10
2022-12-15T07:00:40.176Z,33.53
2022-12-15T07:03:16.669Z,33.33
2022-12-15T07:05:44.048Z,35.90
2022-12-15T07:08:15.752Z,33.93
2022-12-15T07:10:43.400Z,37.63
2022-12-15T07:13:10.526Z,35.77
2022-12-15T07:15:37.100Z,34.67
2022-12-15T07:18:03.888Z,35.57
2022-12-15T07:20:30.625Z,33.37
2022-12-15T07:22:57.069Z,33.90
2022-12-15T07:25:23.948Z,34.80
2022-12-15T07:27:50.483Z,33.97
2022-12-15T07:30:17.917Z,32.23
2022-12-15T07:32:49.988Z,35.27
2022-12-15T07:35:16.935Z,37.63
2022-12-15T07:37:43.393Z,33.43
2022-12-15T07:40:10.086Z,31.00
2022-12-15T07:42:36.721Z,35.47
2022-12-15T07:45:04.216Z,34.30
2022-12-15T07:47:30.753Z,34.33
2022-12-15T07:49:57.519Z,35.33
2022-12-15T07:52:24.290Z,36.67
2022-12-15T07:54:50.704Z,35.83
2022-12-15T07:57:17.203Z,37.40
2022-12-15T07:59:43.681Z,38.53
2022-12-15T08:02:10.685Z,38.03
2022-12-15T08:04:37.426Z,39.83
2022-12-15T08:07:03.886Z,43.43
2022-12-15T08:09:31.790Z,42.67
2022-12-15T08:11:58.390Z,41.20
2022-12-15T08:14:25.196Z,38.77
2022-12-15T08:16:51.915Z,40.00
2022-12-15T08:19:18.382Z,39.80
2022-12-15T08:21:45.669Z,38.53
2022-12-15T08:24:12.444Z,40.33
2022-12-15T08:26:39.296Z,40.03
2022-12-15T08:31:52.856Z,37.53
2022-12-15T08:34:19.660Z,38.47
2022-12-15T08:36:46.152Z,38.73
2022-12-15T08:39:12.596Z,39.17
2022-12-15T08:41:39.238Z,40.80
2022-12-15T08:44:05.715Z,43.50
2022-12-15T08:46:33.889Z,39.13
2022-12-15T08:49:00.736Z,42.33
2022-12-15T08:51:28.382Z,37.67
2022-12-15T08:53:55.385Z,38.43
2022-12-15T08:56:23.016Z,32.50
2022-12-15T08:58:50.594Z,31.70
2022-12-15T09:01:22.816Z,29.23
2022-12-15T09:03:50.963Z,27.83
2022-12-15T09:06:18.802Z,26.73
2022-12-15T09:08:45.241Z,31.23
2022-12-15T09:11:16.682Z,28.85
2022-12-15T09:13:43.148Z,28.53
2022-12-15T09:16:14.113Z,27.40
2022-12-15T09:18:51.761Z,30.20
2022-12-15T09:21:18.930Z,29.30
2022-12-15T09:23:48.786Z,26.37
2022-12-15T09:26:15.456Z,30.40
2022-12-15T09:28:45.399Z,30.37
2022-12-15T09:31:21.984Z,28.77
2022-12-15T09:33:49.435Z,29.92
2022-12-15T09:36:15.876Z,30.37
2022-12-15T09:38:43.160Z,30.27
2022-12-15T09:41:15.722Z,27.97
2022-12-15T09:43:50.178Z,29.43
2022-12-15T09:46:23.329Z,26.77
2022-12-15T09:48:51.292Z,25.30
2022-12-15T09:51:18.586Z,30.17
2022-12-15T09:53:54.801Z,28.30
2022-12-15T09:56:26.097Z,29.40
2022-12-15T09:59:03.251Z,28.37
2022-12-15T10:01:35.537Z,28.10
2022-12-15T10:04:08.013Z,31.17
2022-12-15T10:06:53.337Z,28.77
2022-12-15T10:09:21.532Z,27.67
2022-12-15T10:11:51.030Z,32.23
2022-12-15T10:14:32.507Z,31.60
2022-12-15T10:17:02.725Z,29.27
2022-12-15T10:19:50.093Z,30.57
2022-12-15T10:22:20.201Z,29.93
2022-12-15T10:27:53.999Z,33.93
2022-12-15T10:30:20.932Z,31.27
2022-12-15T10:32:54.891Z,30.67
2022-12-15T10:35:24.360Z,31.77
2022-12-15T10:37:51.020Z,30.40
2022-12-15T10:40:18.784Z,33.37
2022-12-15T10:42:49.513Z,32.33
2022-12-15T10:45:30.274Z,31.80
2022-12-15T10:47:59.060Z,32.97
2022-12-15T10:50:25.682Z,30.90
2022-12-15T10:52:52.103Z,32.47
2022-12-15T10:55:37.272Z,28.07
2022-12-15T10:58:04.847Z,30.73
2022-12-15T11:00:33.019Z,29.33
2022-12-15T11:02:59.827Z,33.67
2022-12-15T11:05:27.029Z,28.77
2022-12-15T11:08:13.284Z,27.60
2022-12-15T11:11:08.754Z,27.03
2022-12-15T11:13:35.377Z,27.37
2022-12-15T11:16:10.802Z,27.63
2022-12-15T11:18:46.721Z,25.60
2022-12-15T11:21:29.337Z,28.23
2022-12-15T11:24:16.329Z,27.40
2022-12-15T11:26:49.047Z,28.40
2022-12-15T11:29:24.675Z,26.93
2022-12-15T11:31:52.011Z,27.37
2022-12-15T11:34:20.494Z,27.73
2022-12-15T11:36:53.027Z,28.80
2022-12-15T11:39:32.550Z,27.47
2022-12-15T11:42:09.755Z,26.50
2022-12-15T11:44:56.920Z,29.97
2022-12-15T11:47:29.432Z,27.50
2022-12-15T11:49:55.814Z,27.93
2022-12-15T11:52:33.580Z,27.17
2022-12-15T11:55:03.978Z,28.43
2022-12-15T11:57:33.462Z,28.93
2022-12-15T12:00:05.629Z,27.43
2022-12-15T12:02:43.914Z,26.23
2022-12-15T12:05:22.770Z,26.10
2022-12-15T12:07:50.617Z,24.67
2022-12-15T12:10:35.559Z,26.87
2022-12-15T12:13:14.264Z,23.47
2022-12-15T12:15:57.717Z,24.87
2022-12-15T12:18:30.401Z,25.70
2022-12-15T12:21:05.026Z,27.43
2022-12-15T12:23:31.459Z,25.43
2022-12-15T12:26:21.251Z,27.60
2022-12-15T12:28:59.262Z,28.63
2022-12-15T12:31:35.228Z,31.97
2022-12-15T12:34:04.246Z,28.00
2022-12-15T12:36:30.682Z,25.93
2022-12-15T12:38:57.950Z,27.97
2022-12-15T12:41:36.436Z,24.20
2022-12-15T12:44:23.082Z,27.80
2022-12-15T12:46:51.698Z,29.70
2022-12-15T12:49:26.789Z,25.30
2022-12-15T12:51:54.938Z,27.87
2022-12-15T12:54:36.652Z,29.07
2022-12-15T12:57:12.289Z,29.92
2022-12-15T12:59:50.281Z,24.80
2022-12-15T13:02:26.313Z,23.77
2022-12-15T13:05:00.548Z,24.20
2022-12-15T13:07:34.694Z,25.30
2022-12-15T13:10:12.643Z,23.10
2022-12-15T13:12:53.348Z,23.73
2022-12-15T13:15:34.048Z,23.95
2022-12-15T13:18:08.242Z,21.30
2022-12-15T13:20:36.267Z,23.43
2022-12-15T13:23:21.141Z,24.93
2022-12-15T13:25:56.824Z,23.97
2022-12-15T13:28:29.384Z,23.73
2022-12-15T13:31:12.278Z,22.83
2022-12-15T13:33:47.731Z,22.87
2022-12-15T13:36:33.914Z,23.70
2022-12-15T13:39:00.436Z,24.30
2022-12-15T13:41:26.914Z,23.13
2022-12-15T13:43:57.815Z,24.20
2022-12-15T13:46:27.206Z,21.63
2022-12-15T13:49:03.608Z,25.10
2022-12-15T13:51:35.397Z,22.93
2022-12-15T13:54:15.507Z,21.40
2022-12-15T13:56:47.794Z,22.30
2022-12-15T13:59:20.335Z,23.67
2022-12-15T14:01:51.371Z,23.27
2022-12-15T14:04:18.361Z,26.67
2022-12-15T14:06:50.711Z,23.67
2022-12-15T14:09:20.081Z,24.33
2022-12-15T14:11:54.756Z,23.87
2022-12-15T14:14:25.969Z,24.20
2022-12-15T14:16:57.861Z,21.77
2022-12-15T14:19:24.970Z,25.20
2022-12-15T14:21:58.125Z,22.90
2022-12-15T14:27:23.023Z,24.33
2022-12-15T14:29:49.400Z,22.37
2022-12-15T14:32:17.421Z,25.90
2022-12-15T14:34:44.061Z,25.20
2022-12-15T14:37:20.733Z,24.80
2022-12-15T14:39:50.302Z,25.43
2022-12-15T14:42:25.050Z,25.03
2022-12-15T14:44:57.502Z,26.00
2022-12-15T14:47:24.319Z,25.97
2022-12-15T14:49:51.196Z,26.30
2022-12-15T14:52:38.474Z,25.17
2022-12-15T14:55:24.938Z,26.20
2022-12-15T14:57:52.514Z,25.97
2022-12-15T15:00:35.696Z,26.67
2022-12-15T15:03:05.967Z,21.57
2022-12-15T15:03:18.242Z,24.60
2022-12-15T15:05:48.114Z,25.80
2022-12-15T15:08:15.649Z,25.60
2022-12-15T15:10:42.333Z,25.67
2022-12-15T15:13:17.526Z,25.80
2022-12-15T15:15:51.487Z,25.63
2022-12-15T15:18:19.302Z,27.80
2022-12-15T15:20:51.784Z,28.10
2022-12-15T15:23:18.351Z,27.53
2022-12-15T15:25:50.792Z,24.20
2022-12-15T15:28:20.102Z,25.63
2022-12-15T15:30:51.048Z,27.53
2022-12-15T15:33:22.804Z,25.67
2022-12-15T15:35:51.014Z,24.30
2022-12-15T15:38:20.069Z,27.93
2022-12-15T15:40:50.420Z,26.77
2022-12-15T15:43:17.777Z,27.43
2022-12-15T15:45:44.484Z,27.93
2022-12-15T15:48:15.694Z,29.70
2022-12-15T15:50:43.416Z,32.17
2022-12-15T15:53:15.385Z,30.47
2022-12-15T15:55:42.650Z,28.37
2022-12-15T15:58:10.842Z,28.83
2022-12-15T16:00:37.375Z,29.03
2022-12-15T16:03:04.149Z,30.93
2022-12-15T16:05:30.793Z,31.07
2022-12-15T16:07:58.407Z,88.73
2022-12-15T16:10:24.968Z,44.40
2022-12-15T16:12:52.701Z,34.67
2022-12-15T16:15:21.510Z,32.73
2022-12-15T16:17:48.146Z,33.80
2022-12-15T16:20:15.708Z,34.07
2022-12-15T16:22:43.211Z,33.70
2022-12-15T16:25:13.201Z,35.03
2022-12-15T16:27:39.728Z,261.50
2022-12-15T16:30:14.442Z,123.63
2022-12-15T16:32:40.947Z,68.13
2022-12-15T16:35:07.974Z,70.30
2022-12-15T16:37:39.318Z,54.43
2022-12-15T16:40:16.794Z,40.45
2022-12-15T16:42:44.123Z,40.27
2022-12-15T16:45:18.317Z,50.17
2022-12-15T16:47:45.277Z,66.93
2022-12-15T16:50:15.907Z,55.23
2022-12-15T16:52:43.569Z,62.43
2022-12-15T16:55:24.182Z,85.47
2022-12-15T16:57:51.687Z,69.50
2022-12-15T17:00:26.140Z,49.90
2022-12-15T17:02:53.399Z,41.27
2022-12-15T17:05:20.818Z,39.83
2022-12-15T17:07:53.098Z,35.63
2022-12-15T17:10:21.190Z,41.83
2022-12-15T17:12:47.915Z,55.83
2022-12-15T17:15:20.671Z,44.27
2022-12-15T17:17:49.935Z,42.37
2022-12-15T17:20:29.240Z,43.53
2022-12-15T17:22:59.807Z,37.97
2022-12-15T17:26:00.717Z,53.30
2022-12-15T17:28:16.524Z,60.93
2022-12-15T17:30:43.121Z,80.97
2022-12-15T17:33:19.834Z,83.33
2022-12-15T17:35:47.200Z,119.03
2022-12-15T17:38:18.268Z,90.63
2022-12-15T17:40:45.543Z,111.30
2022-12-15T17:43:16.582Z,95.37
2022-12-15T17:45:43.095Z,67.00
2022-12-15T17:48:09.572Z,51.93
2022-12-15T17:50:36.028Z,40.37
2022-12-15T17:53:03.931Z,46.10
2022-12-15T17:55:34.947Z,51.07
2022-12-15T17:58:02.788Z,46.20
2022-12-15T18:00:30.542Z,70.40
2022-12-15T18:02:57.736Z,38.20
2022-12-15T18:05:25.867Z,33.63
2022-12-15T18:07:53.791Z,28.17
2022-12-15T18:10:25.730Z,29.00
2022-12-15T18:15:20.923Z,25.97
2022-12-15T18:17:47.461Z,55.53
2022-12-15T18:20:13.993Z,80.77
2022-12-15T18:22:40.491Z,83.90
2022-12-15T18:25:14.370Z,93.47
2022-12-15T18:27:40.765Z,114.23
2022-12-15T18:30:07.632Z,94.40
2022-12-15T18:32:39.979Z,86.37
2022-12-15T18:35:29.561Z,59.83
2022-12-15T18:37:56.702Z,42.70
2022-12-15T18:40:25.147Z,33.83
2022-12-15T18:42:51.721Z,34.50
2022-12-15T18:45:22.778Z,35.97
2022-12-15T18:47:49.549Z,34.83
2022-12-15T18:50:21.118Z,39.73
2022-12-15T18:52:48.697Z,33.50
2022-12-15T18:55:16.773Z,35.50
2022-12-15T18:57:43.207Z,40.63
2022-12-15T19:00:09.641Z,66.17
2022-12-15T19:02:36.284Z,81.30
2022-12-15T19:05:02.880Z,69.53
2022-12-15T19:07:29.440Z,34.50
2022-12-15T19:09:55.981Z,38.10
2022-12-15T19:12:22.554Z,32.50
2022-12-15T19:14:50.097Z,32.93
2022-12-15T19:17:37.190Z,33.27
2022-12-15T19:20:23.879Z,32.30
2022-12-15T19:22:51.384Z,31.57
2022-12-15T19:25:25.565Z,64.43
2022-12-15T19:27:55.106Z,50.67
2022-12-15T19:30:22.157Z,22.80
2022-12-15T19:32:48.885Z,39.33
2022-12-15T19:35:15.332Z,27.53
2022-12-15T19:37:43.636Z,22.20
2022-12-15T19:40:17.619Z,24.20
2022-12-15T19:42:44.551Z,25.20
2022-12-15T19:45:18.621Z,25.73
2022-12-15T19:47:45.097Z,27.03
2022-12-15T19:50:18.835Z,35.13
2022-12-15T19:52:46.817Z,35.07
2022-12-15T19:55:17.116Z,43.27
2022-12-15T19:57:43.869Z,63.10
2022-12-15T20:00:15.531Z,80.63
2022-12-15T20:02:42.105Z,89.05
2022-12-15T20:05:08.739Z,91.87
2022-12-15T20:07:35.201Z,85.43
2022-12-15T20:10:01.713Z,80.50
2022-12-15T20:12:28.236Z,47.17
2022-12-15T20:14:54.703Z,45.67
2022-12-15T20:17:21.093Z,40.40
2022-12-15T20:19:47.514Z,32.60
2022-12-15T20:22:14.634Z,31.10
2022-12-15T20:24:41.301Z,29.20
2022-12-15T20:27:15.470Z,28.60
2022-12-15T20:29:41.961Z,27.97
2022-12-15T20:32:18.432Z,27.03
2022-12-15T20:34:44.886Z,25.30
2022-12-15T20:37:16.729Z,25.47
2022-12-15T20:42:13.796Z,23.43
2022-12-15T20:44:40.209Z,25.63
2022-12-15T20:47:06.775Z,45.33
2022-12-15T20:49:33.211Z,277.70
2022-12-15T20:51:59.600Z,507.07
2022-12-15T20:54:25.985Z,400.83
2022-12-15T20:56:52.547Z,30.73
2022-12-15T20:59:19.024Z,23.13
2022-12-15T21:01:46.600Z,23.93
2022-12-15T21:04:30.306Z,53.83
2022-12-15T21:06:56.943Z,32.07
2022-12-15T21:09:23.750Z,35.40
2022-12-15T21:11:51.965Z,38.63
2022-12-15T21:14:20.151Z,40.37
2022-12-15T21:16:47.030Z,35.40
2022-12-15T21:19:23.238Z,39.40
2022-12-15T21:21:52.035Z,34.90
2022-12-15T21:24:21.123Z,37.73
2022-12-15T21:26:47.581Z,41.93
2022-12-15T21:29:15.834Z,44.10
2022-12-15T21:31:42.544Z,42.93
2022-12-15T21:34:09.596Z,41.50
2022-12-15T21:36:37.049Z,46.63
2022-12-15T21:39:04.661Z,45.77
2022-12-15T21:41:33.783Z,44.20
2022-12-15T21:44:00.665Z,45.97
2022-12-15T21:46:30.332Z,44.07
2022-12-15T21:49:15.457Z,40.23
2022-12-15T21:51:45.028Z,36.27
2022-12-15T21:54:27.357Z,39.03
2022-12-15T21:56:57.242Z,30.67
2022-12-15T21:59:25.003Z,30.07
2022-12-15T22:01:52.071Z,32.77
2022-12-15T22:04:19.964Z,36.33
2022-12-15T22:06:50.600Z,34.00
2022-12-15T22:09:18.725Z,37.13
2022-12-15T22:11:46.791Z,34.67
2022-12-15T22:14:22.182Z,32.93
2022-12-15T22:16:48.638Z,32.73
2022-12-15T22:19:15.120Z,32.43
2022-12-15T22:21:44.906Z,33.50
2022-12-15T22:24:11.439Z,32.77
2022-12-15T22:26:38.469Z,34.37
2022-12-15T22:29:25.180Z,30.67
2022-12-15T22:31:52.057Z,32.73
2022-12-15T22:34:20.084Z,31.07
2022-12-15T22:36:46.836Z,29.93
2022-12-15T22:39:15.057Z,31.47
2022-12-15T22:41:43.835Z,28.20
2022-12-15T22:44:15.554Z,29.53
2022-12-15T22:46:42.246Z,30.23
2022-12-15T22:49:13.831Z,33.80
2022-12-15T22:51:41.320Z,32.92
2022-12-15T22:54:21.045Z,30.60
2022-12-15T22:56:49.423Z,35.40
2022-12-15T22:59:38.283Z,33.43
2022-12-15T23:02:05.193Z,34.57
2022-12-15T23:04:32.075Z,34.23
2022-12-15T23:06:59.216Z,36.37
2022-12-15T23:09:31.904Z,36.87
2022-12-15T23:12:01.736Z,37.93
2022-12-15T23:14:46.669Z,38.17
2022-12-15T23:17:13.919Z,37.30
2022-12-15T23:19:44.349Z,35.07
2022-12-15T23:22:10.974Z,39.53
2022-12-15T23:24:37.512Z,41.43
2022-12-15T23:27:04.047Z,41.10
2022-12-15T23:29:30.531Z,41.80
2022-12-15T23:31:56.987Z,43.17
2022-12-15T23:34:23.502Z,39.83
2022-12-15T23:36:49.884Z,43.80
2022-12-15T23:39:16.261Z,40.47
2022-12-15T23:41:42.743Z,38.47
2022-12-15T23:44:09.180Z,39.20
2022-12-15T23:46:35.715Z,36.53
2022-12-15T23:49:02.172Z,36.20
2022-12-15T23:51:28.877Z,33.10
2022-12-15T23:53:55.264Z,35.77
2022-12-15T23:56:23.177Z,32.47
2022-12-15T23:58:54.731Z,33.23
